<?xml version="1.0" encoding="UTF-8" standalone="no" ?>
<gpx xmlns="http://www.topografix.com/GPX/1/1" xmlns:xsi="http://www.w3.org/2001/XMLSchema-instance" xsi:schemaLocation="http://www.topografix.com/GPX/1/1 http://www.topografix.com/GPX/1/1/gpx.xsd" version="1.1" creator="VisuGPX - https://www.visugpx.com">
  <metadata>
    <name>Lacs Égorgéou et Baricle depuis l'Échalp</name>
  </metadata>
  <wpt lat="44.75652" lon="6.99232">
    <ele>1699</ele>
    <name><![CDATA[Parking au bord du]]></name>
  </wpt>
  <wpt lat="44.75717" lon="6.99092">
    <ele>1700</ele>
    <name><![CDATA[Jonction avec la piste rive gauche du Guil]]></name>
  </wpt>
  <wpt lat="44.75395" lon="6.99155">
    <ele>1729</ele>
    <name><![CDATA[Le sentier montant aux lacs (GR 58)]]></name>
  </wpt>
  <wpt lat="44.74824" lon="6.98477">
    <ele>1978</ele>
    <name><![CDATA[Face au Chalet de la Médille]]></name>
  </wpt>
  <wpt lat="44.72556" lon="6.98093">
    <ele>2402</ele>
    <name><![CDATA[Extrémité nord du]]></name>
  </wpt>
  <wpt lat="44.71838" lon="6.97902">
    <ele>2411</ele>
    <name><![CDATA[Traversée du glacis amont du lac]]></name>
  </wpt>
  <wpt lat="44.72288" lon="6.98419">
    <ele>2415</ele>
    <name><![CDATA[Au bord du]]></name>
  </wpt>
  <wpt lat="44.75655" lon="6.99226">
    <ele>1699</ele>
    <name><![CDATA[Retour parking]]></name>
  </wpt>
  <trk>
    <name><![CDATA[Lacs Égorgéou et Baricle depuis l'Échalp]]></name>
    <trkseg>
      <trkpt lat="44.75652" lon="6.99232">
        <ele>1699</ele>
        <time>2021-07-12T18:39:49+02:00</time>
      </trkpt>
      <trkpt lat="44.75746" lon="6.9926">
        <ele>1694</ele>
        <time>2021-07-12T18:39:54+02:00</time>
      </trkpt>
      <trkpt lat="44.75717" lon="6.992">
        <ele>1697</ele>
        <time>2021-07-12T18:39:59+02:00</time>
      </trkpt>
      <trkpt lat="44.75713" lon="6.99172">
        <ele>1698</ele>
        <time>2021-07-12T18:40:04+02:00</time>
      </trkpt>
      <trkpt lat="44.75717" lon="6.99092">
        <ele>1700</ele>
        <time>2021-07-12T18:40:09+02:00</time>
      </trkpt>
      <trkpt lat="44.75653" lon="6.99084">
        <ele>1701</ele>
        <time>2021-07-12T18:40:14+02:00</time>
      </trkpt>
      <trkpt lat="44.75569" lon="6.99099">
        <ele>1708</ele>
        <time>2021-07-12T18:40:19+02:00</time>
      </trkpt>
      <trkpt lat="44.75446" lon="6.99133">
        <ele>1716</ele>
        <time>2021-07-12T18:40:24+02:00</time>
      </trkpt>
      <trkpt lat="44.75395" lon="6.99155">
        <ele>1729</ele>
        <time>2021-07-12T18:40:29+02:00</time>
      </trkpt>
      <trkpt lat="44.75324" lon="6.99183">
        <ele>1733</ele>
        <time>2021-07-12T18:40:34+02:00</time>
      </trkpt>
      <trkpt lat="44.75255" lon="6.99206">
        <ele>1751</ele>
        <time>2021-07-12T18:40:39+02:00</time>
      </trkpt>
      <trkpt lat="44.75187" lon="6.99217">
        <ele>1776</ele>
        <time>2021-07-12T18:40:44+02:00</time>
      </trkpt>
      <trkpt lat="44.75147" lon="6.99215">
        <ele>1788</ele>
        <time>2021-07-12T18:40:49+02:00</time>
      </trkpt>
      <trkpt lat="44.7521" lon="6.99176">
        <ele>1790</ele>
        <time>2021-07-12T18:40:54+02:00</time>
      </trkpt>
      <trkpt lat="44.75236" lon="6.99144">
        <ele>1783</ele>
        <time>2021-07-12T18:40:59+02:00</time>
      </trkpt>
      <trkpt lat="44.75236" lon="6.99101">
        <ele>1789</ele>
        <time>2021-07-12T18:41:04+02:00</time>
      </trkpt>
      <trkpt lat="44.75216" lon="6.99095">
        <ele>1802</ele>
        <time>2021-07-12T18:41:09+02:00</time>
      </trkpt>
      <trkpt lat="44.75222" lon="6.99022">
        <ele>1802</ele>
        <time>2021-07-12T18:41:14+02:00</time>
      </trkpt>
      <trkpt lat="44.75191" lon="6.98994">
        <ele>1814</ele>
        <time>2021-07-12T18:41:19+02:00</time>
      </trkpt>
      <trkpt lat="44.7515" lon="6.98968">
        <ele>1832</ele>
        <time>2021-07-12T18:41:24+02:00</time>
      </trkpt>
      <trkpt lat="44.75147" lon="6.98936">
        <ele>1830</ele>
        <time>2021-07-12T18:41:29+02:00</time>
      </trkpt>
      <trkpt lat="44.75065" lon="6.98874">
        <ele>1865</ele>
        <time>2021-07-12T18:41:34+02:00</time>
      </trkpt>
      <trkpt lat="44.75044" lon="6.98846">
        <ele>1878</ele>
        <time>2021-07-12T18:41:39+02:00</time>
      </trkpt>
      <trkpt lat="44.7503" lon="6.98805">
        <ele>1891</ele>
        <time>2021-07-12T18:41:44+02:00</time>
      </trkpt>
      <trkpt lat="44.75053" lon="6.98771">
        <ele>1891</ele>
        <time>2021-07-12T18:41:49+02:00</time>
      </trkpt>
      <trkpt lat="44.75028" lon="6.98711">
        <ele>1904</ele>
        <time>2021-07-12T18:41:54+02:00</time>
      </trkpt>
      <trkpt lat="44.74993" lon="6.98685">
        <ele>1916</ele>
        <time>2021-07-12T18:41:59+02:00</time>
      </trkpt>
      <trkpt lat="44.74919" lon="6.9867">
        <ele>1931</ele>
        <time>2021-07-12T18:42:04+02:00</time>
      </trkpt>
      <trkpt lat="44.74888" lon="6.98631">
        <ele>1941</ele>
        <time>2021-07-12T18:42:09+02:00</time>
      </trkpt>
      <trkpt lat="44.74829" lon="6.98539">
        <ele>1960</ele>
        <time>2021-07-12T18:42:14+02:00</time>
      </trkpt>
      <trkpt lat="44.74824" lon="6.98477">
        <ele>1978</ele>
        <time>2021-07-12T18:42:19+02:00</time>
      </trkpt>
      <trkpt lat="44.74783" lon="6.98464">
        <ele>1983</ele>
        <time>2021-07-12T18:42:24+02:00</time>
      </trkpt>
      <trkpt lat="44.74727" lon="6.98485">
        <ele>1982</ele>
        <time>2021-07-12T18:42:29+02:00</time>
      </trkpt>
      <trkpt lat="44.74655" lon="6.985">
        <ele>1992</ele>
        <time>2021-07-12T18:42:34+02:00</time>
      </trkpt>
      <trkpt lat="44.74625" lon="6.98483">
        <ele>1993</ele>
        <time>2021-07-12T18:42:39+02:00</time>
      </trkpt>
      <trkpt lat="44.74608" lon="6.98442">
        <ele>1998</ele>
        <time>2021-07-12T18:42:44+02:00</time>
      </trkpt>
      <trkpt lat="44.74539" lon="6.98451">
        <ele>1998</ele>
        <time>2021-07-12T18:42:49+02:00</time>
      </trkpt>
      <trkpt lat="44.74478" lon="6.98406">
        <ele>2018</ele>
        <time>2021-07-12T18:42:54+02:00</time>
      </trkpt>
      <trkpt lat="44.74442" lon="6.98384">
        <ele>2031</ele>
        <time>2021-07-12T18:42:59+02:00</time>
      </trkpt>
      <trkpt lat="44.74419" lon="6.984">
        <ele>2033</ele>
        <time>2021-07-12T18:43:04+02:00</time>
      </trkpt>
      <trkpt lat="44.74376" lon="6.98412">
        <ele>2041</ele>
        <time>2021-07-12T18:43:09+02:00</time>
      </trkpt>
      <trkpt lat="44.74282" lon="6.98427">
        <ele>2046</ele>
        <time>2021-07-12T18:43:14+02:00</time>
      </trkpt>
      <trkpt lat="44.74208" lon="6.98438">
        <ele>2043</ele>
        <time>2021-07-12T18:43:19+02:00</time>
      </trkpt>
      <trkpt lat="44.7414" lon="6.98425">
        <ele>2037</ele>
        <time>2021-07-12T18:43:24+02:00</time>
      </trkpt>
      <trkpt lat="44.74079" lon="6.9841">
        <ele>2024</ele>
        <time>2021-07-12T18:43:29+02:00</time>
      </trkpt>
      <trkpt lat="44.74042" lon="6.98382">
        <ele>2026</ele>
        <time>2021-07-12T18:43:34+02:00</time>
      </trkpt>
      <trkpt lat="44.73986" lon="6.98395">
        <ele>2024</ele>
        <time>2021-07-12T18:43:39+02:00</time>
      </trkpt>
      <trkpt lat="44.7391" lon="6.98361">
        <ele>2044</ele>
        <time>2021-07-12T18:43:44+02:00</time>
      </trkpt>
      <trkpt lat="44.7385" lon="6.98365">
        <ele>2051</ele>
        <time>2021-07-12T18:43:49+02:00</time>
      </trkpt>
      <trkpt lat="44.73779" lon="6.98367">
        <ele>2058</ele>
        <time>2021-07-12T18:43:54+02:00</time>
      </trkpt>
      <trkpt lat="44.73741" lon="6.98361">
        <ele>2062</ele>
        <time>2021-07-12T18:43:59+02:00</time>
      </trkpt>
      <trkpt lat="44.73687" lon="6.98316">
        <ele>2079</ele>
        <time>2021-07-12T18:44:04+02:00</time>
      </trkpt>
      <trkpt lat="44.73637" lon="6.98247">
        <ele>2103</ele>
        <time>2021-07-12T18:44:09+02:00</time>
      </trkpt>
      <trkpt lat="44.73645" lon="6.982">
        <ele>2112</ele>
        <time>2021-07-12T18:44:14+02:00</time>
      </trkpt>
      <trkpt lat="44.73605" lon="6.98161">
        <ele>2126</ele>
        <time>2021-07-12T18:44:19+02:00</time>
      </trkpt>
      <trkpt lat="44.73494" lon="6.9817">
        <ele>2156</ele>
        <time>2021-07-12T18:44:24+02:00</time>
      </trkpt>
      <trkpt lat="44.73439" lon="6.98247">
        <ele>2170</ele>
        <time>2021-07-12T18:44:29+02:00</time>
      </trkpt>
      <trkpt lat="44.73363" lon="6.98309">
        <ele>2190</ele>
        <time>2021-07-12T18:44:34+02:00</time>
      </trkpt>
      <trkpt lat="44.73312" lon="6.98312">
        <ele>2202</ele>
        <time>2021-07-12T18:44:39+02:00</time>
      </trkpt>
      <trkpt lat="44.73241" lon="6.98286">
        <ele>2218</ele>
        <time>2021-07-12T18:44:44+02:00</time>
      </trkpt>
      <trkpt lat="44.73201" lon="6.98292">
        <ele>2225</ele>
        <time>2021-07-12T18:44:49+02:00</time>
      </trkpt>
      <trkpt lat="44.73164" lon="6.98314">
        <ele>2232</ele>
        <time>2021-07-12T18:44:54+02:00</time>
      </trkpt>
      <trkpt lat="44.73102" lon="6.98337">
        <ele>2248</ele>
        <time>2021-07-12T18:44:59+02:00</time>
      </trkpt>
      <trkpt lat="44.73052" lon="6.98412">
        <ele>2260</ele>
        <time>2021-07-12T18:45:04+02:00</time>
      </trkpt>
      <trkpt lat="44.73027" lon="6.98406">
        <ele>2268</ele>
        <time>2021-07-12T18:45:09+02:00</time>
      </trkpt>
      <trkpt lat="44.72995" lon="6.98372">
        <ele>2276</ele>
        <time>2021-07-12T18:45:14+02:00</time>
      </trkpt>
      <trkpt lat="44.72968" lon="6.98288">
        <ele>2295</ele>
        <time>2021-07-12T18:45:19+02:00</time>
      </trkpt>
      <trkpt lat="44.72939" lon="6.98234">
        <ele>2326</ele>
        <time>2021-07-12T18:45:24+02:00</time>
      </trkpt>
      <trkpt lat="44.72914" lon="6.98234">
        <ele>2334</ele>
        <time>2021-07-12T18:45:29+02:00</time>
      </trkpt>
      <trkpt lat="44.7285" lon="6.98288">
        <ele>2342</ele>
        <time>2021-07-12T18:45:34+02:00</time>
      </trkpt>
      <trkpt lat="44.72794" lon="6.98314">
        <ele>2361</ele>
        <time>2021-07-12T18:45:39+02:00</time>
      </trkpt>
      <trkpt lat="44.72733" lon="6.98275">
        <ele>2383</ele>
        <time>2021-07-12T18:45:44+02:00</time>
      </trkpt>
      <trkpt lat="44.72722" lon="6.98226">
        <ele>2389</ele>
        <time>2021-07-12T18:45:49+02:00</time>
      </trkpt>
      <trkpt lat="44.72706" lon="6.98187">
        <ele>2395</ele>
        <time>2021-07-12T18:45:54+02:00</time>
      </trkpt>
      <trkpt lat="44.72661" lon="6.98112">
        <ele>2410</ele>
        <time>2021-07-12T18:45:59+02:00</time>
      </trkpt>
      <trkpt lat="44.7262" lon="6.98082">
        <ele>2413</ele>
        <time>2021-07-12T18:46:04+02:00</time>
      </trkpt>
      <trkpt lat="44.72599" lon="6.98082">
        <ele>2408</ele>
        <time>2021-07-12T18:46:09+02:00</time>
      </trkpt>
      <trkpt lat="44.72556" lon="6.98093">
        <ele>2402</ele>
        <time>2021-07-12T18:46:14+02:00</time>
      </trkpt>
      <trkpt lat="44.72518" lon="6.98071">
        <ele>2405</ele>
        <time>2021-07-12T18:46:19+02:00</time>
      </trkpt>
      <trkpt lat="44.72466" lon="6.98033">
        <ele>2403</ele>
        <time>2021-07-12T18:46:24+02:00</time>
      </trkpt>
      <trkpt lat="44.72416" lon="6.97981">
        <ele>2406</ele>
        <time>2021-07-12T18:46:29+02:00</time>
      </trkpt>
      <trkpt lat="44.72396" lon="6.9796">
        <ele>2412</ele>
        <time>2021-07-12T18:46:34+02:00</time>
      </trkpt>
      <trkpt lat="44.72361" lon="6.97955">
        <ele>2413</ele>
        <time>2021-07-12T18:46:39+02:00</time>
      </trkpt>
      <trkpt lat="44.72283" lon="6.9796">
        <ele>2405</ele>
        <time>2021-07-12T18:46:44+02:00</time>
      </trkpt>
      <trkpt lat="44.72231" lon="6.97927">
        <ele>2409</ele>
        <time>2021-07-12T18:46:49+02:00</time>
      </trkpt>
      <trkpt lat="44.72181" lon="6.97908">
        <ele>2404</ele>
        <time>2021-07-12T18:46:54+02:00</time>
      </trkpt>
      <trkpt lat="44.72138" lon="6.97921">
        <ele>2401</ele>
        <time>2021-07-12T18:46:59+02:00</time>
      </trkpt>
      <trkpt lat="44.7209" lon="6.97908">
        <ele>2405</ele>
        <time>2021-07-12T18:47:04+02:00</time>
      </trkpt>
      <trkpt lat="44.72006" lon="6.97895">
        <ele>2403</ele>
        <time>2021-07-12T18:47:09+02:00</time>
      </trkpt>
      <trkpt lat="44.71955" lon="6.97895">
        <ele>2405</ele>
        <time>2021-07-12T18:47:14+02:00</time>
      </trkpt>
      <trkpt lat="44.71931" lon="6.97887">
        <ele>2407</ele>
        <time>2021-07-12T18:47:19+02:00</time>
      </trkpt>
      <trkpt lat="44.71887" lon="6.97882">
        <ele>2408</ele>
        <time>2021-07-12T18:47:24+02:00</time>
      </trkpt>
      <trkpt lat="44.71838" lon="6.97902">
        <ele>2411</ele>
        <time>2021-07-12T18:47:29+02:00</time>
      </trkpt>
      <trkpt lat="44.71836" lon="6.97949">
        <ele>2409</ele>
        <time>2021-07-12T18:47:34+02:00</time>
      </trkpt>
      <trkpt lat="44.71887" lon="6.97996">
        <ele>2407</ele>
        <time>2021-07-12T18:47:39+02:00</time>
      </trkpt>
      <trkpt lat="44.71998" lon="6.98018">
        <ele>2400</ele>
        <time>2021-07-12T18:47:44+02:00</time>
      </trkpt>
      <trkpt lat="44.72094" lon="6.98056">
        <ele>2399</ele>
        <time>2021-07-12T18:47:49+02:00</time>
      </trkpt>
      <trkpt lat="44.72199" lon="6.98131">
        <ele>2396</ele>
        <time>2021-07-12T18:47:54+02:00</time>
      </trkpt>
      <trkpt lat="44.7223" lon="6.98166">
        <ele>2395</ele>
        <time>2021-07-12T18:47:59+02:00</time>
      </trkpt>
      <trkpt lat="44.72247" lon="6.98206">
        <ele>2400</ele>
        <time>2021-07-12T18:48:04+02:00</time>
      </trkpt>
      <trkpt lat="44.72262" lon="6.98301">
        <ele>2419</ele>
        <time>2021-07-12T18:48:09+02:00</time>
      </trkpt>
      <trkpt lat="44.72289" lon="6.98322">
        <ele>2419</ele>
        <time>2021-07-12T18:48:14+02:00</time>
      </trkpt>
      <trkpt lat="44.72311" lon="6.9835">
        <ele>2418</ele>
        <time>2021-07-12T18:48:19+02:00</time>
      </trkpt>
      <trkpt lat="44.72309" lon="6.98374">
        <ele>2417</ele>
        <time>2021-07-12T18:48:24+02:00</time>
      </trkpt>
      <trkpt lat="44.72288" lon="6.98419">
        <ele>2415</ele>
        <time>2021-07-12T18:48:29+02:00</time>
      </trkpt>
      <trkpt lat="44.72329" lon="6.98442">
        <ele>2417</ele>
        <time>2021-07-12T18:48:34+02:00</time>
      </trkpt>
      <trkpt lat="44.72364" lon="6.98436">
        <ele>2416</ele>
        <time>2021-07-12T18:48:39+02:00</time>
      </trkpt>
      <trkpt lat="44.72385" lon="6.98404">
        <ele>2415</ele>
        <time>2021-07-12T18:48:44+02:00</time>
      </trkpt>
      <trkpt lat="44.72417" lon="6.98337">
        <ele>2415</ele>
        <time>2021-07-12T18:48:49+02:00</time>
      </trkpt>
      <trkpt lat="44.72449" lon="6.98307">
        <ele>2412</ele>
        <time>2021-07-12T18:48:54+02:00</time>
      </trkpt>
      <trkpt lat="44.72469" lon="6.98254">
        <ele>2401</ele>
        <time>2021-07-12T18:48:59+02:00</time>
      </trkpt>
      <trkpt lat="44.72504" lon="6.98224">
        <ele>2399</ele>
        <time>2021-07-12T18:49:04+02:00</time>
      </trkpt>
      <trkpt lat="44.72553" lon="6.98129">
        <ele>2395</ele>
        <time>2021-07-12T18:49:09+02:00</time>
      </trkpt>
      <trkpt lat="44.7255" lon="6.98116">
        <ele>2397</ele>
        <time>2021-07-12T18:49:14+02:00</time>
      </trkpt>
      <trkpt lat="44.72561" lon="6.98093">
        <ele>2401</ele>
        <time>2021-07-12T18:49:19+02:00</time>
      </trkpt>
      <trkpt lat="44.72613" lon="6.9808">
        <ele>2412</ele>
        <time>2021-07-12T18:49:24+02:00</time>
      </trkpt>
      <trkpt lat="44.72663" lon="6.98114">
        <ele>2409</ele>
        <time>2021-07-12T18:49:29+02:00</time>
      </trkpt>
      <trkpt lat="44.72709" lon="6.98185">
        <ele>2395</ele>
        <time>2021-07-12T18:49:34+02:00</time>
      </trkpt>
      <trkpt lat="44.72734" lon="6.98273">
        <ele>2383</ele>
        <time>2021-07-12T18:49:39+02:00</time>
      </trkpt>
      <trkpt lat="44.72792" lon="6.98312">
        <ele>2363</ele>
        <time>2021-07-12T18:49:44+02:00</time>
      </trkpt>
      <trkpt lat="44.72861" lon="6.98281">
        <ele>2340</ele>
        <time>2021-07-12T18:49:49+02:00</time>
      </trkpt>
      <trkpt lat="44.72916" lon="6.98236">
        <ele>2332</ele>
        <time>2021-07-12T18:49:54+02:00</time>
      </trkpt>
      <trkpt lat="44.72942" lon="6.98234">
        <ele>2325</ele>
        <time>2021-07-12T18:49:59+02:00</time>
      </trkpt>
      <trkpt lat="44.72968" lon="6.98281">
        <ele>2297</ele>
        <time>2021-07-12T18:50:04+02:00</time>
      </trkpt>
      <trkpt lat="44.72994" lon="6.98374">
        <ele>2277</ele>
        <time>2021-07-12T18:50:09+02:00</time>
      </trkpt>
      <trkpt lat="44.73044" lon="6.98415">
        <ele>2262</ele>
        <time>2021-07-12T18:50:14+02:00</time>
      </trkpt>
      <trkpt lat="44.73099" lon="6.98342">
        <ele>2248</ele>
        <time>2021-07-12T18:50:19+02:00</time>
      </trkpt>
      <trkpt lat="44.73184" lon="6.98305">
        <ele>2227</ele>
        <time>2021-07-12T18:50:24+02:00</time>
      </trkpt>
      <trkpt lat="44.73247" lon="6.98279">
        <ele>2219</ele>
        <time>2021-07-12T18:50:29+02:00</time>
      </trkpt>
      <trkpt lat="44.73317" lon="6.98314">
        <ele>2201</ele>
        <time>2021-07-12T18:50:34+02:00</time>
      </trkpt>
      <trkpt lat="44.73356" lon="6.98307">
        <ele>2192</ele>
        <time>2021-07-12T18:50:39+02:00</time>
      </trkpt>
      <trkpt lat="44.73398" lon="6.98281">
        <ele>2181</ele>
        <time>2021-07-12T18:50:44+02:00</time>
      </trkpt>
      <trkpt lat="44.7344" lon="6.98241">
        <ele>2170</ele>
        <time>2021-07-12T18:50:49+02:00</time>
      </trkpt>
      <trkpt lat="44.73498" lon="6.9817">
        <ele>2154</ele>
        <time>2021-07-12T18:50:54+02:00</time>
      </trkpt>
      <trkpt lat="44.73559" lon="6.98159">
        <ele>2137</ele>
        <time>2021-07-12T18:50:59+02:00</time>
      </trkpt>
      <trkpt lat="44.73603" lon="6.98161">
        <ele>2126</ele>
        <time>2021-07-12T18:51:04+02:00</time>
      </trkpt>
      <trkpt lat="44.73645" lon="6.982">
        <ele>2112</ele>
        <time>2021-07-12T18:51:09+02:00</time>
      </trkpt>
      <trkpt lat="44.73643" lon="6.98247">
        <ele>2102</ele>
        <time>2021-07-12T18:51:14+02:00</time>
      </trkpt>
      <trkpt lat="44.7369" lon="6.98309">
        <ele>2079</ele>
        <time>2021-07-12T18:51:19+02:00</time>
      </trkpt>
      <trkpt lat="44.73745" lon="6.98363">
        <ele>2061</ele>
        <time>2021-07-12T18:51:24+02:00</time>
      </trkpt>
      <trkpt lat="44.73818" lon="6.98365">
        <ele>2055</ele>
        <time>2021-07-12T18:51:29+02:00</time>
      </trkpt>
      <trkpt lat="44.73888" lon="6.98365">
        <ele>2045</ele>
        <time>2021-07-12T18:51:34+02:00</time>
      </trkpt>
      <trkpt lat="44.73922" lon="6.98369">
        <ele>2039</ele>
        <time>2021-07-12T18:51:39+02:00</time>
      </trkpt>
      <trkpt lat="44.73992" lon="6.98389">
        <ele>2024</ele>
        <time>2021-07-12T18:51:44+02:00</time>
      </trkpt>
      <trkpt lat="44.74039" lon="6.9838">
        <ele>2026</ele>
        <time>2021-07-12T18:51:49+02:00</time>
      </trkpt>
      <trkpt lat="44.74076" lon="6.98415">
        <ele>2020</ele>
        <time>2021-07-12T18:51:54+02:00</time>
      </trkpt>
      <trkpt lat="44.74215" lon="6.98436">
        <ele>2045</ele>
        <time>2021-07-12T18:51:59+02:00</time>
      </trkpt>
      <trkpt lat="44.74314" lon="6.98421">
        <ele>2046</ele>
        <time>2021-07-12T18:52:04+02:00</time>
      </trkpt>
      <trkpt lat="44.74396" lon="6.98406">
        <ele>2038</ele>
        <time>2021-07-12T18:52:09+02:00</time>
      </trkpt>
      <trkpt lat="44.74439" lon="6.98384">
        <ele>2031</ele>
        <time>2021-07-12T18:52:14+02:00</time>
      </trkpt>
      <trkpt lat="44.74516" lon="6.98427">
        <ele>2006</ele>
        <time>2021-07-12T18:52:19+02:00</time>
      </trkpt>
      <trkpt lat="44.74539" lon="6.98449">
        <ele>1998</ele>
        <time>2021-07-12T18:52:24+02:00</time>
      </trkpt>
      <trkpt lat="44.746" lon="6.98445">
        <ele>1998</ele>
        <time>2021-07-12T18:52:29+02:00</time>
      </trkpt>
      <trkpt lat="44.74622" lon="6.98477">
        <ele>1993</ele>
        <time>2021-07-12T18:52:34+02:00</time>
      </trkpt>
      <trkpt lat="44.74657" lon="6.985">
        <ele>1992</ele>
        <time>2021-07-12T18:52:39+02:00</time>
      </trkpt>
      <trkpt lat="44.74753" lon="6.98477">
        <ele>1980</ele>
        <time>2021-07-12T18:52:44+02:00</time>
      </trkpt>
      <trkpt lat="44.74785" lon="6.98468">
        <ele>1981</ele>
        <time>2021-07-12T18:52:49+02:00</time>
      </trkpt>
      <trkpt lat="44.74827" lon="6.98477">
        <ele>1978</ele>
        <time>2021-07-12T18:52:54+02:00</time>
      </trkpt>
      <trkpt lat="44.74829" lon="6.98545">
        <ele>1959</ele>
        <time>2021-07-12T18:52:59+02:00</time>
      </trkpt>
      <trkpt lat="44.74917" lon="6.98674">
        <ele>1930</ele>
        <time>2021-07-12T18:53:04+02:00</time>
      </trkpt>
      <trkpt lat="44.74981" lon="6.98678">
        <ele>1920</ele>
        <time>2021-07-12T18:53:09+02:00</time>
      </trkpt>
      <trkpt lat="44.75031" lon="6.98715">
        <ele>1902</ele>
        <time>2021-07-12T18:53:14+02:00</time>
      </trkpt>
      <trkpt lat="44.75057" lon="6.98773">
        <ele>1890</ele>
        <time>2021-07-12T18:53:19+02:00</time>
      </trkpt>
      <trkpt lat="44.7503" lon="6.98803">
        <ele>1891</ele>
        <time>2021-07-12T18:53:24+02:00</time>
      </trkpt>
      <trkpt lat="44.75044" lon="6.98854">
        <ele>1875</ele>
        <time>2021-07-12T18:53:29+02:00</time>
      </trkpt>
      <trkpt lat="44.75094" lon="6.98895">
        <ele>1852</ele>
        <time>2021-07-12T18:53:34+02:00</time>
      </trkpt>
      <trkpt lat="44.75149" lon="6.98936">
        <ele>1830</ele>
        <time>2021-07-12T18:53:39+02:00</time>
      </trkpt>
      <trkpt lat="44.75153" lon="6.98962">
        <ele>1830</ele>
        <time>2021-07-12T18:53:44+02:00</time>
      </trkpt>
      <trkpt lat="44.75196" lon="6.98992">
        <ele>1812</ele>
        <time>2021-07-12T18:53:49+02:00</time>
      </trkpt>
      <trkpt lat="44.75222" lon="6.9902">
        <ele>1802</ele>
        <time>2021-07-12T18:53:54+02:00</time>
      </trkpt>
      <trkpt lat="44.75213" lon="6.99088">
        <ele>1804</ele>
        <time>2021-07-12T18:53:59+02:00</time>
      </trkpt>
      <trkpt lat="44.75231" lon="6.99103">
        <ele>1792</ele>
        <time>2021-07-12T18:54:04+02:00</time>
      </trkpt>
      <trkpt lat="44.75231" lon="6.9914">
        <ele>1787</ele>
        <time>2021-07-12T18:54:09+02:00</time>
      </trkpt>
      <trkpt lat="44.75204" lon="6.99183">
        <ele>1792</ele>
        <time>2021-07-12T18:54:14+02:00</time>
      </trkpt>
      <trkpt lat="44.7515" lon="6.99213">
        <ele>1789</ele>
        <time>2021-07-12T18:54:19+02:00</time>
      </trkpt>
      <trkpt lat="44.75231" lon="6.99206">
        <ele>1763</ele>
        <time>2021-07-12T18:54:24+02:00</time>
      </trkpt>
      <trkpt lat="44.75295" lon="6.99191">
        <ele>1734</ele>
        <time>2021-07-12T18:54:29+02:00</time>
      </trkpt>
      <trkpt lat="44.75397" lon="6.99149">
        <ele>1732</ele>
        <time>2021-07-12T18:54:34+02:00</time>
      </trkpt>
      <trkpt lat="44.75458" lon="6.99127">
        <ele>1718</ele>
        <time>2021-07-12T18:54:39+02:00</time>
      </trkpt>
      <trkpt lat="44.75531" lon="6.99105">
        <ele>1709</ele>
        <time>2021-07-12T18:54:44+02:00</time>
      </trkpt>
      <trkpt lat="44.75627" lon="6.9909">
        <ele>1704</ele>
        <time>2021-07-12T18:54:49+02:00</time>
      </trkpt>
      <trkpt lat="44.75668" lon="6.99088">
        <ele>1700</ele>
        <time>2021-07-12T18:54:54+02:00</time>
      </trkpt>
      <trkpt lat="44.75723" lon="6.99088">
        <ele>1701</ele>
        <time>2021-07-12T18:54:59+02:00</time>
      </trkpt>
      <trkpt lat="44.75717" lon="6.9917">
        <ele>1698</ele>
        <time>2021-07-12T18:55:04+02:00</time>
      </trkpt>
      <trkpt lat="44.75729" lon="6.99236">
        <ele>1695</ele>
        <time>2021-07-12T18:55:09+02:00</time>
      </trkpt>
      <trkpt lat="44.75655" lon="6.99226">
        <ele>1699</ele>
        <time>2021-07-12T18:55:14+02:00</time>
      </trkpt>
    </trkseg>
  </trk>
</gpx>